49OH weather

Sky Ranch Airport
West Jefferson, Ohio, United States

Public forecast

Using degrees Fahrenheit for public forecast. Weather courtesy of forecast.io.

METAR (pilot weather report)

Closest report is Bolton Field, 5.0 nm (9.3 km) ESE. Retrieved 2019/05/25 23:40 UTC (0 seconds ago):

KTZR 252340Z AUTO 26007KT 10SM SCT085 SCT120 23/20 A3005 RMK AO2 T02300195

TAF (pilot weather forecast)

Closest forecast is Rickenbacker International Airport, 16.0 nm (29.6 km) ESE. Retrieved 2019/05/25 22:57 UTC (31 minutes ago):

TAF KLCK 252143Z 2522/2618 31015G25KT 6SM -SHRA OVC040 FM252300 24010KT P6SM VCSH SCT040 BKN100 FM260100 23006KT P6SM BKN120 FM260900 23006KT P6SM BKN060 FM261100 23007KT P6SM VCSH BKN050 FM261500 25009KT P6SM -SHRA VCTS BKN050CB